Time;durP1;ratioP1;P1;durP2;ratioP2;P2;SDS_P1;SDS_P2;PMS_P1;PMS_P2;Temp;Humidity;BMP_temperature;BMP_pressure;BME280_temperature;BME280_humidity;BME280_pressure;Samples;Min_cycle;Max_cycle;Signal;HPM_P1;HPM_P2
2021/03/04 00:00:18;;;;;;;45.85;30.20;;;;;;;8.09;64.27;101667.78;5050446;28;20396;-78
2021/03/04 00:03:22;;;;;;;43.28;30.35;;;;;;;8.02;64.51;101656.56;5050579;28;20076;-81
2021/03/04 00:06:26;;;;;;;47.38;30.67;;;;;;;8.02;64.45;101667.28;5054123;28;20040;-80
2021/03/04 00:09:31;;;;;;;40.80;29.33;;;;;;;7.95;64.41;101657.84;5051495;28;20045;-79
2021/03/04 00:12:35;;;;;;;43.58;29.88;;;;;;;7.87;64.58;101660.09;5050170;28;20044;-75
2021/03/04 00:15:41;;;;;;;40.60;29.55;;;;;;;7.88;64.49;101648.44;5049842;28;20064;-79
2021/03/04 00:18:45;;;;;;;41.40;28.27;;;;;;;7.86;64.70;101645.00;5038660;28;20049;-80
2021/03/04 00:21:49;;;;;;;42.45;29.20;;;;;;;7.84;64.59;101645.09;5035855;28;20053;-83
2021/03/04 00:24:54;;;;;;;39.58;28.25;;;;;;;7.85;64.51;101645.97;5036659;28;20060;-82
2021/03/04 00:27:59;;;;;;;40.47;27.70;;;;;;;7.88;64.47;101646.63;5036565;28;20377;-78
2021/03/04 00:31:03;;;;;;;39.15;28.48;;;;;;;7.80;64.53;101648.03;5058850;28;20049;-75
2021/03/04 00:34:07;;;;;;;43.17;27.65;;;;;;;7.69;64.51;101643.28;5035699;28;20382;-83
2021/03/04 00:37:11;;;;;;;39.50;28.17;;;;;;;7.67;64.68;101642.50;5035036;28;20045;-81
2021/03/04 00:40:19;;;;;;;46.53;28.63;;;;;;;7.61;64.74;101634.81;5036428;28;20044;-83
2021/03/04 00:43:24;;;;;;;41.17;27.50;;;;;;;7.61;64.89;101625.94;5035618;28;20484;-84
2021/03/04 00:46:28;;;;;;;43.55;28.73;;;;;;;7.60;65.09;101632.25;5036268;28;20397;-86
2021/03/04 00:49:33;;;;;;;39.10;26.85;;;;;;;7.58;64.80;101626.97;5036100;28;20506;-80
2021/03/04 00:52:37;;;;;;;37.42;26.95;;;;;;;7.51;65.07;101620.22;5036159;28;20052;-82
2021/03/04 00:55:41;;;;;;;41.63;28.95;;;;;;;7.50;64.92;101612.31;5036455;28;20121;-77
2021/03/04 00:58:46;;;;;;;41.50;28.02;;;;;;;7.44;65.04;101607.28;5036193;28;20400;-81
2021/03/04 01:01:51;;;;;;;36.67;26.75;;;;;;;7.40;65.12;101609.28;5035840;28;20044;-80
2021/03/04 01:04:56;;;;;;;42.00;28.58;;;;;;;7.38;65.02;101600.47;5035398;28;20480;-82
2021/03/04 01:08:00;;;;;;;41.05;28.15;;;;;;;7.40;65.10;101590.59;5035864;28;20053;-76
2021/03/04 01:11:07;;;;;;;41.20;25.75;;;;;;;7.41;64.80;101591.44;5035397;28;20056;-74
2021/03/04 01:14:10;;;;;;;36.40;27.45;;;;;;;7.43;64.94;101593.06;5035846;28;20492;-82
2021/03/04 01:17:15;;;;;;;40.92;26.73;;;;;;;7.34;64.87;101590.03;5023665;28;20416;-75
2021/03/04 01:20:20;;;;;;;39.33;27.35;;;;;;;7.28;64.89;101591.28;5035877;28;20125;-83
2021/03/04 01:23:25;;;;;;;39.42;26.20;;;;;;;7.24;64.99;101587.03;5034754;28;20068;-77
2021/03/04 01:26:29;;;;;;;39.17;26.38;;;;;;;7.24;64.88;101576.34;5034986;28;20056;-84
2021/03/04 01:29:34;;;;;;;37.47;25.63;;;;;;;7.25;64.82;101571.88;5033937;28;20068;-80
2021/03/04 01:32:39;;;;;;;40.13;26.95;;;;;;;7.26;64.75;101571.75;5034880;28;20061;-81
2021/03/04 01:35:43;;;;;;;39.13;26.80;;;;;;;7.31;64.56;101575.06;5034598;28;20052;-79
2021/03/04 01:38:48;;;;;;;46.25;26.83;;;;;;;7.27;64.40;101567.28;5035565;28;20049;-75
2021/03/04 01:41:52;;;;;;;38.67;26.25;;;;;;;7.23;64.72;101562.13;5034426;28;20472;-81
2021/03/04 01:44:56;;;;;;;40.45;27.17;;;;;;;7.23;64.53;101559.44;5023040;28;20052;-78
2021/03/04 01:48:02;;;;;;;40.80;27.52;;;;;;;7.22;64.71;101554.19;5034420;28;20391;-77
2021/03/04 01:51:06;;;;;;;35.70;25.83;;;;;;;7.18;64.67;101552.66;5034788;28;20401;-79
2021/03/04 01:54:11;;;;;;;39.03;25.80;;;;;;;7.15;64.46;101536.78;5035302;28;20040;-81
2021/03/04 01:57:16;;;;;;;38.55;26.33;;;;;;;7.11;64.63;101537.91;5034948;28;20041;-79
2021/03/04 02:00:21;;;;;;;37.95;26.08;;;;;;;7.04;64.76;101537.38;5034947;28;20040;-82
2021/03/04 02:03:26;;;;;;;41.42;24.55;;;;;;;7.08;64.47;101528.28;5034874;28;20052;-79
2021/03/04 02:06:44;;;;;;;36.30;25.10;;;;;;;7.01;64.58;101518.84;5034449;28;20056;-82
2021/03/04 02:09:54;;;;;;;40.85;25.80;;;;;;;7.00;64.31;101518.94;5034796;28;20064;-79
2021/03/04 02:13:23;;;;;;;37.92;27.20;;;;;;;6.98;64.71;101512.84;5034295;28;20057;-80
2021/03/04 02:16:35;;;;;;;38.03;24.33;;;;;;;7.05;64.34;101517.75;5034593;28;20057;-79
2021/03/04 02:19:54;;;;;;;38.13;25.42;;;;;;;7.06;64.10;101515.97;5034616;28;20500;-79
2021/03/04 02:23:09;;;;;;;37.00;24.33;;;;;;;6.95;64.20;101507.66;5033726;28;20507;-82
2021/03/04 02:26:23;;;;;;;36.58;24.95;;;;;;;6.90;64.30;101504.38;5034370;28;20487;-81
2021/03/04 02:29:30;;;;;;;34.22;24.30;;;;;;;6.79;64.55;101512.94;5033869;28;20052;-85
2021/03/04 02:32:42;;;;;;;35.75;24.77;;;;;;;6.73;64.62;101505.28;5033927;28;20060;-81
2021/03/04 02:35:48;;;;;;;32.55;23.10;;;;;;;6.75;64.76;101498.06;5034331;28;20052;-84
2021/03/04 02:38:52;;;;;;;33.78;23.42;;;;;;;6.74;65.00;101501.66;5033492;28;20052;-78
2021/03/04 02:41:57;;;;;;;35.95;23.83;;;;;;;6.74;64.99;101490.16;5033624;28;20044;-77
2021/03/04 02:45:03;;;;;;;35.30;24.30;;;;;;;6.68;65.22;101488.66;5034465;28;20052;-80
2021/03/04 02:48:11;;;;;;;33.83;23.95;;;;;;;6.66;64.99;101479.03;5034072;28;20053;-82
2021/03/04 02:51:15;;;;;;;39.63;23.83;;;;;;;6.69;65.01;101485.03;5033313;28;20064;-78
2021/03/04 02:54:21;;;;;;;31.67;22.65;;;;;;;6.62;65.22;101480.97;5034087;28;20040;-79
2021/03/04 02:57:27;;;;;;;32.67;22.20;;;;;;;6.60;65.23;101477.53;5021849;28;20040;-78
2021/03/04 03:00:32;;;;;;;33.35;24.23;;;;;;;6.59;65.16;101478.50;5034023;28;20048;-79
2021/03/04 03:03:36;;;;;;;31.15;22.38;;;;;;;6.59;65.04;101472.28;5044606;28;20052;-84
2021/03/04 03:06:41;;;;;;;34.00;23.20;;;;;;;6.62;64.90;101477.47;5033462;28;20056;-75
2021/03/04 03:09:45;;;;;;;31.08;22.20;;;;;;;6.62;64.91;101472.97;5033983;28;20401;-82
2021/03/04 03:12:33;;;;;;;33.05;22.55;;;;;;;6.62;64.84;101472.97;5033326;28;20044;-81
2021/03/04 03:15:37;;;;;;;34.15;22.38;;;;;;;6.62;64.87;101467.63;5033610;28;20045;-81
2021/03/04 03:18:42;;;;;;;34.22;23.02;;;;;;;6.58;64.78;101463.44;5041219;28;20052;-80
2021/03/04 03:21:47;;;;;;;34.03;22.77;;;;;;;6.62;64.94;101467.63;5054007;28;20475;-80
2021/03/04 03:24:51;;;;;;;32.47;22.75;;;;;;;6.59;64.60;101461.63;5053704;28;20048;-80
2021/03/04 03:27:56;;;;;;;33.17;21.83;;;;;;;6.60;64.83;101461.53;5052721;28;20068;-81
2021/03/04 03:31:01;;;;;;;32.58;21.83;;;;;;;6.61;64.55;101465.94;5053622;28;20143;-82
2021/03/04 03:34:06;;;;;;;30.75;22.17;;;;;;;6.56;64.72;101465.31;5052172;28;20535;-80
2021/03/04 03:37:10;;;;;;;33.28;21.95;;;;;;;6.49;64.50;101459.44;5052626;28;20052;-82
2021/03/04 03:40:15;;;;;;;32.88;22.35;;;;;;;6.51;64.61;101454.91;5053644;28;20099;-84
2021/03/04 03:43:21;;;;;;;32.55;22.73;;;;;;;6.53;64.86;101460.13;5052741;28;20480;-78
2021/03/04 03:46:30;;;;;;;34.60;22.17;;;;;;;6.47;65.02;101453.31;5052619;28;20048;-83
2021/03/04 03:49:38;;;;;;;33.40;22.52;;;;;;;6.46;64.74;101453.41;5053521;28;20048;-77
2021/03/04 03:52:44;;;;;;;32.13;21.17;;;;;;;6.40;64.87;101457.25;5053512;28;20051;-78
2021/03/04 03:55:50;;;;;;;33.33;20.90;;;;;;;6.40;64.85;101448.38;5056675;28;20499;-79
2021/03/04 03:58:58;;;;;;;30.50;20.70;;;;;;;6.41;65.12;101442.13;5057182;28;20056;-80
2021/03/04 04:02:02;;;;;;;32.63;21.45;;;;;;;6.32;64.78;101437.28;5057104;28;20052;-76
2021/03/04 04:05:08;;;;;;;30.58;21.25;;;;;;;6.29;64.52;101442.78;5056991;28;20483;-74
2021/03/04 04:08:13;;;;;;;28.13;19.95;;;;;;;6.26;64.41;101435.81;5056922;28;20056;-81
2021/03/04 04:11:20;;;;;;;30.48;21.23;;;;;;;6.20;64.94;101437.91;5056892;28;20067;-82
2021/03/04 04:14:24;;;;;;;31.08;20.70;;;;;;;6.10;64.99;101431.38;5056063;28;20067;-80
2021/03/04 04:17:29;;;;;;;32.88;21.98;;;;;;;5.98;65.39;101430.19;5056775;28;20064;-76
2021/03/04 04:20:35;;;;;;;30.60;21.55;;;;;;;5.94;65.79;101420.63;5056993;28;20055;-79
2021/03/04 04:23:40;;;;;;;33.97;21.42;;;;;;;5.90;65.62;101419.91;5056721;28;20099;-78
2021/03/04 04:26:45;;;;;;;30.73;20.88;;;;;;;5.87;65.96;101416.56;5055744;28;20044;-75
2021/03/04 04:29:49;;;;;;;32.97;21.63;;;;;;;5.87;65.91;101412.09;5056557;28;20048;-75
2021/03/04 04:32:53;;;;;;;;;;;;;;;5.78;66.11;101411.66;5056682;28;20044;-82
2021/03/04 04:35:57;;;;;;;31.60;21.88;;;;;;;5.79;66.15;101422.25;5056468;28;19916;-85
2021/03/04 04:39:02;;;;;;;29.17;20.85;;;;;;;5.76;66.01;101422.41;5056385;28;20072;-78
2021/03/04 04:42:07;;;;;;;31.38;21.08;;;;;;;5.68;66.25;101416.59;5055532;28;20388;-79
2021/03/04 04:45:12;;;;;;;30.58;21.48;;;;;;;5.67;66.22;101412.22;5056297;28;20058;-78
2021/03/04 04:48:16;;;;;;;30.17;20.58;;;;;;;5.64;65.97;101416.81;5056212;28;20056;-80
2021/03/04 04:51:20;;;;;;;28.58;19.80;;;;;;;5.67;65.94;101422.88;5056440;28;20048;-81
2021/03/04 04:54:24;;;;;;;;;;;;;;;5.58;65.98;101415.31;5055817;28;20048;-83
2021/03/04 04:57:28;;;;;;;35.30;20.17;;;;;;;5.58;65.94;101422.47;5055474;28;19917;-82
2021/03/04 05:00:32;;;;;;;30.70;19.77;;;;;;;5.54;66.09;101416.44;5056238;28;20491;-84
2021/03/04 05:03:36;;;;;;;34.05;19.67;;;;;;;5.53;65.97;101413.84;5055891;28;20048;-84
2021/03/04 05:06:40;;;;;;;;;;;;;;;5.49;66.32;101418.47;5044277;28;20071;-77
2021/03/04 05:09:44;;;;;;;30.20;19.40;;;;;;;5.43;66.58;101424.06;5055876;28;19921;-79
2021/03/04 05:12:49;;;;;;;32.05;20.45;;;;;;;5.39;66.37;101411.88;5056056;28;20052;-80
2021/03/04 05:15:53;;;;;;;33.42;19.73;;;;;;;5.37;66.61;101416.41;5055756;28;20048;-74
2021/03/04 05:18:57;;;;;;;30.38;20.40;;;;;;;5.37;66.50;101413.75;5055410;28;20075;-84
2021/03/04 05:22:01;;;;;;;;;;;;;;;5.39;66.39;101417.19;5055728;28;20052;-78
2021/03/04 05:25:06;;;;;;;31.35;21.05;;;;;;;5.34;66.51;101415.69;5055577;28;20271;-77
2021/03/04 05:28:13;;;;;;;34.03;21.38;;;;;;;5.35;66.36;101414.75;5048645;28;20400;-76
2021/03/04 05:31:18;;;;;;;30.67;20.58;;;;;;;5.29;66.38;101407.94;5035536;28;20052;-79
2021/03/04 05:34:22;;;;;;;31.08;21.17;;;;;;;5.28;66.36;101408.88;5035453;28;20057;-82
2021/03/04 05:37:26;;;;;;;28.20;18.95;;;;;;;5.24;66.48;101400.19;5035377;28;20060;-81
2021/03/04 05:40:30;;;;;;;28.88;19.63;;;;;;;5.30;66.28;101406.13;5035329;28;20057;-79
2021/03/04 05:43:36;;;;;;;30.77;19.77;;;;;;;5.32;66.21;101398.94;5034750;28;20060;-76
2021/03/04 05:46:44;;;;;;;28.95;19.35;;;;;;;5.31;66.39;101398.06;5034831;28;20496;-82
2021/03/04 05:49:59;;;;;;;29.35;19.30;;;;;;;5.29;65.92;101391.97;5042131;28;20056;-82
2021/03/04 05:53:12;;;;;;;32.63;19.70;;;;;;;5.19;66.22;101388.03;5034540;28;20048;-81
2021/03/04 05:56:17;;;;;;;28.42;19.27;;;;;;;5.18;66.33;101384.50;5045725;28;20049;-84
2021/03/04 05:59:23;;;;;;;30.48;19.80;;;;;;;5.23;66.03;101392.28;5034939;28;20049;-84
2021/03/04 06:02:28;;;;;;;27.92;18.75;;;;;;;5.24;65.88;101389.53;5034038;28;20060;-84
2021/03/04 06:05:33;;;;;;;30.35;20.35;;;;;;;5.19;65.87;101391.56;5034697;28;20052;-82
2021/03/04 06:08:37;;;;;;;30.83;17.45;;;;;;;5.19;65.72;101380.03;5033844;28;20048;-82
2021/03/04 06:11:41;;;;;;;28.88;19.45;;;;;;;5.32;65.58;101389.16;5033442;28;20064;-77
2021/03/04 06:14:47;;;;;;;26.52;17.50;;;;;;;5.41;65.10;101378.03;5034679;28;20502;-78
2021/03/04 06:18:00;;;;;;;27.92;17.95;;;;;;;5.52;64.92;101381.03;5022624;28;20045;-81
2021/03/04 06:21:23;;;;;;;30.88;18.00;;;;;;;5.61;64.49;101385.03;5033749;28;20116;-81
2021/03/04 06:24:28;;;;;;;34.92;18.23;;;;;;;5.74;63.99;101381.66;5034434;28;20048;-82
2021/03/04 06:27:34;;;;;;;26.95;17.85;;;;;;;5.92;63.26;101379.03;5033606;28;20058;-78
2021/03/04 06:30:40;;;;;;;26.95;16.88;;;;;;;5.94;63.03;101378.00;5033484;28;20056;-79
2021/03/04 06:33:45;;;;;;;27.80;17.67;;;;;;;6.06;62.54;101372.03;5034520;28;20495;-76
2021/03/04 06:37:04;;;;;;;26.30;17.08;;;;;;;6.35;61.73;101370.44;5034603;28;20060;-77
2021/03/04 06:40:20;;;;;;;27.95;16.63;;;;;;;6.75;60.18;101366.44;5033216;28;20040;-80
2021/03/04 06:43:27;;;;;;;23.85;17.55;;;;;;;7.22;59.28;101362.81;5045035;28;20400;-76
2021/03/04 06:46:43;;;;;;;29.05;17.05;;;;;;;7.56;57.30;101367.03;5052877;28;20052;-81
2021/03/04 06:49:47;;;;;;;38.47;17.30;;;;;;;7.73;56.75;101368.69;5052874;28;20044;-78
2021/03/04 06:52:52;;;;;;;26.77;16.95;;;;;;;7.80;56.17;101372.75;5053180;28;20056;-77
2021/03/04 06:56:01;;;;;;;29.42;18.02;;;;;;;7.93;55.70;101364.81;5052855;28;20120;-79
2021/03/04 06:59:05;;;;;;;29.35;16.15;;;;;;;8.20;54.79;101365.81;5053655;28;20051;-70
2021/03/04 07:02:11;;;;;;;36.22;16.40;;;;;;;8.34;54.36;101366.72;5052707;28;20068;-84
2021/03/04 07:05:15;;;;;;;36.05;17.70;;;;;;;8.63;53.71;101369.38;5052982;28;20132;-76
2021/03/04 07:08:20;;;;;;;37.35;16.45;;;;;;;8.60;53.71;101372.22;5053105;28;20063;-81
2021/03/04 07:11:25;;;;;;;31.88;16.77;;;;;;;8.38;54.25;101378.94;5052126;28;20040;-80
2021/03/04 07:14:30;;;;;;;29.50;16.85;;;;;;;8.36;54.39;101377.31;5053690;28;20055;-77
2021/03/04 07:17:35;;;;;;;30.52;17.23;;;;;;;8.45;54.08;101374.06;5052519;28;20080;-87
2021/03/04 07:20:40;;;;;;;32.30;17.15;;;;;;;8.72;54.08;101374.13;5053178;28;20040;-82
2021/03/04 07:23:46;;;;;;;31.30;16.67;;;;;;;9.14;52.78;101376.72;5052981;28;20056;-77
2021/03/04 07:26:52;;;;;;;36.83;19.02;;;;;;;9.08;52.50;101375.31;5052150;28;20595;-77
2021/03/04 07:29:55;;;;;;;37.38;15.95;;;;;;;9.32;52.05;101377.31;5035784;28;20056;-79
2021/03/04 07:33:00;;;;;;;24.73;14.85;;;;;;;9.90;50.95;101374.25;5036933;28;20045;-81
2021/03/04 07:36:09;;;;;;;34.75;15.88;;;;;;;10.33;49.37;101378.38;5036011;28;20048;-76
2021/03/04 07:39:14;;;;;;;33.53;15.40;;;;;;;10.88;48.30;101368.09;5037031;28;20408;-77
2021/03/04 07:42:22;;;;;;;30.25;15.38;;;;;;;11.52;46.79;101374.91;5036741;28;20052;-75
2021/03/04 07:45:28;;;;;;;28.20;14.75;;;;;;;11.61;46.38;101371.53;5036039;28;20041;-77
2021/03/04 07:48:32;;;;;;;34.67;18.58;;;;;;;12.12;45.91;101371.22;5037040;28;20057;-72
2021/03/04 07:51:47;;;;;;;73.90;44.33;;;;;;;14.26;41.22;101363.19;5035669;28;20045;-81
2021/03/04 07:54:54;;;;;;;91.30;50.85;;;;;;;16.38;36.96;101354.41;5024997;28;20046;-77
2021/03/04 07:57:58;;;;;;;86.85;53.65;;;;;;;17.92;34.06;101361.50;5037017;28;20041;-76
2021/03/04 08:01:12;;;;;;;85.95;50.92;;;;;;;19.65;31.69;101356.59;5036304;28;20488;-83
2021/03/04 08:04:21;;;;;;;84.80;54.05;;;;;;;23.08;26.86;101354.06;5037203;28;20061;-74
2021/03/04 08:07:26;;;;;;;72.57;47.40;;;;;;;27.20;21.88;101344.09;5037083;28;20053;-76
2021/03/04 08:10:30;;;;;;;50.58;39.15;;;;;;;29.40;19.53;101348.13;5037119;28;20048;-81
2021/03/04 08:13:39;;;;;;;45.35;32.67;;;;;;;31.28;17.98;101347.81;5036949;28;20041;-78
2021/03/04 08:16:53;;;;;;;38.25;31.98;;;;;;;31.57;17.79;101345.09;5036368;28;20515;-84
2021/03/04 08:19:59;;;;;;;42.45;27.58;;;;;;;33.81;16.19;101342.34;5035837;28;20496;-85
2021/03/04 08:23:04;;;;;;;38.38;27.38;;;;;;;33.57;16.48;101340.97;5036778;28;20068;-79
2021/03/04 08:26:38;;;;;;;37.05;27.88;;;;;;;33.88;16.25;101342.94;5036580;28;20061;-83
2021/03/04 08:29:49;;;;;;;46.97;37.97;;;;;;;34.79;15.57;101337.28;5014472;28;20536;-85
2021/03/04 08:32:54;;;;;;;60.13;48.45;;;;;;;36.27;14.90;101341.88;5014839;28;20049;-82
2021/03/04 08:36:01;;;;;;;48.08;39.03;;;;;;;36.00;14.88;101340.53;5014697;28;20045;-82
2021/03/04 08:39:06;;;;;;;48.53;39.83;;;;;;;36.54;14.58;101336.84;5015273;28;20050;-85
2021/03/04 08:42:10;;;;;;;47.75;40.17;;;;;;;38.52;13.43;101331.78;5014521;28;20060;-72
2021/03/04 08:45:15;;;;;;;46.92;41.83;;;;;;;36.37;14.80;101338.22;5025745;28;20045;-73
2021/03/04 08:48:19;;;;;;;45.63;40.88;;;;;;;36.00;15.34;101332.13;5014481;28;20072;-72
2021/03/04 08:51:23;;;;;;;45.70;40.88;;;;;;;35.72;14.92;101317.53;5014338;28;20050;-70
2021/03/04 08:54:29;;;;;;;52.22;44.20;;;;;;;35.38;15.44;101313.56;5014284;28;20050;-71
2021/03/04 08:57:34;;;;;;;52.28;41.45;;;;;;;35.92;15.26;101319.53;5014542;28;20497;-72
2021/03/04 09:00:39;;;;;;;52.35;43.55;;;;;;;36.72;15.30;101300.97;5014203;28;20064;-72
2021/03/04 09:03:44;;;;;;;48.58;43.40;;;;;;;35.90;15.69;101299.38;5014169;28;20137;-72
2021/03/04 09:06:48;;;;;;;49.60;44.15;;;;;;;34.59;16.63;101301.75;5035408;28;20408;-71
2021/03/04 09:09:58;;;;;;;53.58;46.00;;;;;;;35.05;16.01;101306.47;5035601;28;20044;-72
2021/03/04 09:13:03;;;;;;;50.67;43.88;;;;;;;35.22;16.46;101289.47;5035841;28;20052;-72
2021/03/04 09:16:07;;;;;;;54.13;48.42;;;;;;;35.02;15.91;101298.59;5034988;28;20049;-72
2021/03/04 09:19:23;;;;;;;55.78;49.75;;;;;;;34.73;16.56;101297.34;5035759;28;20041;-72
2021/03/04 09:22:27;;;;;;;54.28;47.72;;;;;;;34.56;16.48;101291.97;5035643;28;20041;-72
2021/03/04 09:25:32;;;;;;;53.00;47.67;;;;;;;33.53;17.05;101284.06;5035526;28;20060;-72
2021/03/04 09:28:39;;;;;;;50.30;45.15;;;;;;;33.56;17.28;101282.75;5035415;28;20054;-72
2021/03/04 09:31:53;;;;;;;66.38;59.17;;;;;;;33.54;17.00;101276.56;5035541;28;20038;-83
2021/03/04 09:34:58;;;;;;;63.85;57.20;;;;;;;32.85;17.69;101281.91;5035442;28;20041;-78
2021/03/04 09:38:07;;;;;;;61.30;54.65;;;;;;;32.47;17.97;101279.94;5035398;28;20052;-73
2021/03/04 09:41:13;;;;;;;68.13;60.80;;;;;;;31.28;18.54;101274.84;5035359;28;20045;-75
2021/03/04 09:44:18;;;;;;;61.50;52.15;;;;;;;29.50;20.71;101270.94;5035025;28;20061;-70
2021/03/04 09:47:24;;;;;;;60.65;52.80;;;;;;;27.69;22.53;101279.97;5035252;28;20046;-72
2021/03/04 09:50:28;;;;;;;64.07;54.15;;;;;;;25.29;24.99;101273.72;5034077;28;20045;-72
2021/03/04 09:53:47;;;;;;;60.40;53.42;;;;;;;23.20;28.10;101282.16;5035095;28;20072;-72
2021/03/04 09:57:08;;;;;;;65.40;55.17;;;;;;;21.95;30.30;101276.84;5034973;28;20068;-71
2021/03/04 10:00:16;;;;;;;75.80;62.08;;;;;;;20.64;31.85;101287.09;5034027;28;20048;-72
2021/03/04 10:03:21;;;;;;;75.18;64.03;;;;;;;20.27;32.82;101284.16;5034624;28;20465;-71
2021/03/04 10:06:25;;;;;;;72.90;60.83;;;;;;;19.41;33.37;101270.25;5034244;28;20052;-71
2021/03/04 10:09:29;;;;;;;79.57;62.08;;;;;;;19.32;34.20;101269.38;5033688;28;20044;-71
2021/03/04 10:12:34;;;;;;;77.57;59.85;;;;;;;19.34;34.52;101271.91;5034237;28;20053;-71
2021/03/04 10:15:42;;;;;;;83.57;60.53;;;;;;;18.59;35.83;101260.16;5034957;28;20049;-71
2021/03/04 10:18:49;;;;;;;77.25;57.47;;;;;;;17.84;35.19;101268.22;5034596;28;20385;-71
2021/03/04 10:21:53;;;;;;;79.10;61.65;;;;;;;17.25;36.04;101264.31;5034541;28;20053;-71
2021/03/04 10:24:58;;;;;;;84.50;62.47;;;;;;;16.98;37.84;101258.97;5033653;28;20053;-72
2021/03/04 10:28:03;;;;;;;87.47;64.30;;;;;;;16.60;38.45;101262.78;5034360;28;20056;-71
2021/03/04 10:31:08;;;;;;;85.18;63.50;;;;;;;16.54;38.97;101259.81;5033877;28;20056;-71
2021/03/04 10:34:12;;;;;;;83.13;62.92;;;;;;;16.79;38.82;101250.94;5033563;28;20046;-71
2021/03/04 10:37:17;;;;;;;82.55;61.58;;;;;;;16.92;38.94;101252.28;5034244;28;20064;-71
2021/03/04 10:40:22;;;;;;;86.70;63.78;;;;;;;16.62;38.85;101254.47;5033916;28;20052;-70
2021/03/04 10:43:26;;;;;;;86.57;61.88;;;;;;;16.92;39.48;101248.72;5033388;28;20502;-71
2021/03/04 10:46:30;;;;;;;85.55;62.08;;;;;;;16.82;38.58;101243.38;5034119;28;20068;-80
2021/03/04 10:49:35;;;;;;;90.53;65.40;;;;;;;16.65;38.23;101249.63;5034146;28;20057;-76
2021/03/04 10:52:40;;;;;;;88.35;59.58;;;;;;;16.59;37.90;101238.53;5034147;28;20483;-76
2021/03/04 10:55:44;;;;;;;85.97;59.95;;;;;;;16.38;39.03;101233.31;5022264;28;20052;-75
2021/03/04 10:58:50;;;;;;;81.53;59.70;;;;;;;16.82;38.73;101231.66;5032914;28;20049;-72
2021/03/04 11:01:54;;;;;;;77.78;59.30;;;;;;;16.48;38.86;101220.59;5033855;28;20048;-72
2021/03/04 11:04:59;;;;;;;83.68;59.15;;;;;;;16.26;38.29;101211.00;5033994;28;20050;-70
2021/03/04 11:08:04;;;;;;;88.57;63.28;;;;;;;16.02;40.31;101218.78;5033841;28;20046;-72
2021/03/04 11:11:21;;;;;;;111.75;83.43;;;;;;;16.07;41.24;101211.06;5033876;28;20048;-72
2021/03/04 11:14:26;;;;;;;77.90;55.08;;;;;;;16.07;39.60;101200.25;5033787;28;20041;-71
2021/03/04 11:17:30;;;;;;;77.00;56.38;;;;;;;15.94;41.11;101201.59;5032614;28;20038;-71
2021/03/04 11:20:35;;;;;;;82.18;57.53;;;;;;;15.80;40.62;101194.78;5033733;28;20042;-71
2021/03/04 11:23:39;;;;;;;73.95;56.95;;;;;;;15.72;41.38;101188.41;5033710;28;20064;-72
2021/03/04 11:26:43;;;;;;;80.72;58.17;;;;;;;15.87;41.52;101182.38;5032891;28;20049;-71
2021/03/04 11:29:48;;;;;;;84.53;58.05;;;;;;;15.86;41.25;101180.66;5033564;28;20041;-71
2021/03/04 11:32:52;;;;;;;73.93;56.00;;;;;;;15.77;40.93;101168.03;5033693;28;20049;-71
2021/03/04 11:35:57;;;;;;;76.78;56.60;;;;;;;15.79;41.52;101178.69;5033555;28;20045;-71
2021/03/04 11:39:03;;;;;;;78.90;57.83;;;;;;;15.77;40.17;101164.47;5033540;28;20052;-72
2021/03/04 11:42:07;;;;;;;76.03;55.03;;;;;;;15.99;40.24;101159.53;5033516;28;20496;-71
2021/03/04 11:45:12;;;;;;;81.75;60.30;;;;;;;15.90;41.10;101149.56;5033807;28;20373;-71
2021/03/04 11:48:16;;;;;;;78.80;59.95;;;;;;;15.79;40.19;101140.81;5033687;28;20461;-71
2021/03/04 11:51:21;;;;;;;84.38;61.05;;;;;;;15.54;41.07;101134.19;5032688;28;20050;-70
2021/03/04 11:54:26;;;;;;;80.03;58.53;;;;;;;15.52;40.55;101131.66;5033502;28;20053;-72
2021/03/04 11:57:31;;;;;;;83.93;58.38;;;;;;;15.60;40.77;101131.75;5033344;28;20049;-71
2021/03/04 12:00:35;;;;;;;78.53;57.75;;;;;;;15.50;40.87;101121.97;5033469;28;20116;-71
2021/03/04 12:03:40;;;;;;;79.72;58.30;;;;;;;15.57;40.25;101114.97;5034133;28;20068;-78
2021/03/04 12:06:44;;;;;;;77.70;57.97;;;;;;;15.62;40.04;101107.25;5033388;28;20053;-77
2021/03/04 12:09:48;;;;;;;74.32;53.92;;;;;;;15.61;40.87;101095.56;5033406;28;20060;-73
2021/03/04 12:12:53;;;;;;;76.13;56.70;;;;;;;15.56;40.90;101091.59;5033512;28;20049;-76
2021/03/04 12:16:02;;;;;;;76.80;55.90;;;;;;;15.61;40.55;101092.00;5036794;28;20068;-72
2021/03/04 12:19:06;;;;;;;74.07;54.90;;;;;;;15.64;41.44;101083.59;5035802;28;20052;-72
2021/03/04 12:22:10;;;;;;;73.05;53.05;;;;;;;15.71;40.51;101076.59;5036647;28;20056;-72
2021/03/04 12:25:15;;;;;;;77.03;53.00;;;;;;;15.63;41.32;101065.66;5036468;28;20477;-72
2021/03/04 12:28:19;;;;;;;75.30;53.60;;;;;;;15.70;41.08;101066.78;5036558;28;20424;-72
2021/03/04 12:31:23;;;;;;;74.32;53.33;;;;;;;15.84;41.13;101068.97;5035688;28;20401;-72
2021/03/04 12:34:28;;;;;;;74.72;55.72;;;;;;;15.80;41.82;101058.59;5036585;28;20483;-72
2021/03/04 12:37:33;;;;;;;79.78;58.25;;;;;;;15.76;42.08;101047.22;5036496;28;20052;-72
2021/03/04 12:40:37;;;;;;;80.07;56.28;;;;;;;15.64;42.54;101048.41;5035740;28;20056;-72
2021/03/04 12:43:41;;;;;;;80.07;57.38;;;;;;;15.54;42.55;101039.50;5036440;28;20056;-71
2021/03/04 12:46:46;;;;;;;72.93;54.28;;;;;;;15.53;43.14;101035.06;5036380;28;20057;-72
2021/03/04 12:49:51;;;;;;;74.30;54.53;;;;;;;15.68;42.03;101020.03;5035224;28;20080;-72
2021/03/04 12:52:55;;;;;;;70.00;52.78;;;;;;;15.77;42.01;101024.56;5036299;28;20061;-72
2021/03/04 12:56:00;;;;;;;66.88;50.63;;;;;;;15.59;41.73;101016.41;5036148;28;20053;-71
2021/03/04 12:59:05;;;;;;;68.60;50.20;;;;;;;15.71;42.08;101008.06;5035270;28;20068;-72
2021/03/04 13:02:09;;;;;;;65.18;48.67;;;;;;;15.75;41.91;101015.72;5035183;28;20038;-72
2021/03/04 13:05:15;;;;;;;68.90;48.63;;;;;;;15.73;40.94;101009.59;5035114;28;20037;-72
2021/03/04 13:08:19;;;;;;;64.68;45.95;;;;;;;15.77;40.52;101007.47;5035793;28;20048;-71
2021/03/04 13:11:24;;;;;;;63.55;47.03;;;;;;;15.89;40.38;101012.50;5035805;28;20052;-72
2021/03/04 13:14:28;;;;;;;68.28;48.53;;;;;;;15.79;41.64;100990.06;5035803;28;20044;-72
2021/03/04 13:17:32;;;;;;;58.95;45.88;;;;;;;15.89;41.60;100993.56;5035794;28;20045;-81
2021/03/04 13:20:37;;;;;;;67.68;48.78;;;;;;;15.87;41.61;100982.03;5036721;28;20041;-81
2021/03/04 13:23:41;;;;;;;56.80;45.03;;;;;;;16.09;41.22;100980.72;5036104;28;20404;-72
2021/03/04 13:26:46;;;;;;;64.55;45.80;;;;;;;16.04;41.28;100973.06;5035942;28;20052;-72
2021/03/04 13:29:50;;;;;;;62.55;46.92;;;;;;;16.02;41.09;100966.09;5057641;28;20058;-77
2021/03/04 13:32:55;;;;;;;62.30;43.97;;;;;;;16.03;40.95;100962.38;5035569;28;20050;-72
2021/03/04 13:35:59;;;;;;;63.83;44.63;;;;;;;16.12;41.33;100965.00;5034482;28;20060;-72
2021/03/04 13:39:04;;;;;;;64.97;46.38;;;;;;;16.10;40.52;100958.91;5035202;28;20092;-72
2021/03/04 13:42:08;;;;;;;61.85;45.80;;;;;;;16.14;41.83;100951.31;5034424;28;20383;-72
2021/03/04 13:45:13;;;;;;;62.70;44.80;;;;;;;16.17;41.65;100946.44;5035107;28;20046;-72
2021/03/04 13:48:17;;;;;;;59.72;44.75;;;;;;;16.23;41.34;100947.66;5035274;28;20041;-72
2021/03/04 13:51:22;;;;;;;56.95;43.47;;;;;;;16.34;41.10;100938.44;5035110;28;20046;-72
2021/03/04 13:54:26;;;;;;;61.88;44.05;;;;;;;16.37;41.25;100943.56;5034974;28;20045;-72
2021/03/04 13:57:31;;;;;;;63.33;44.70;;;;;;;16.29;40.91;100931.63;5034946;28;20072;-72
2021/03/04 14:00:35;;;;;;;62.08;44.90;;;;;;;16.25;41.24;100934.81;5034961;28;20420;-72
2021/03/04 14:03:39;;;;;;;58.40;43.80;;;;;;;16.01;41.27;100930.03;5034852;28;20376;-72
2021/03/04 14:06:44;;;;;;;61.45;45.40;;;;;;;16.13;41.12;100926.09;5033926;28;20045;-72
2021/03/04 14:09:48;;;;;;;59.85;43.78;;;;;;;16.06;41.34;100925.00;5033887;28;20461;-72